createdAt,value
2023-03-02T00:09:06.313Z,-0.51
2023-03-02T00:19:27.543Z,-0.56
2023-03-02T00:29:48.553Z,-0.57
2023-03-02T00:40:10.371Z,-0.59
2023-03-02T00:50:31.805Z,-0.64
2023-03-02T01:00:53.010Z,-0.65
2023-03-02T01:11:24.520Z,-0.67
2023-03-02T01:21:45.936Z,-0.70
2023-03-02T01:32:07.497Z,-0.76
2023-03-02T01:42:34.802Z,-0.81
2023-03-02T01:52:56.938Z,-0.84
2023-03-02T02:03:23.557Z,-0.88
2023-03-02T02:13:45.333Z,-0.91
2023-03-02T02:24:11.882Z,-0.95
2023-03-02T02:34:50.149Z,-1.01
2023-03-02T02:45:26.502Z,-1.04
2023-03-02T02:55:50.742Z,-1.09
2023-03-02T03:06:19.446Z,-1.13
2023-03-02T03:16:43.107Z,-1.16
2023-03-02T03:27:05.728Z,-1.23
2023-03-02T03:37:29.895Z,-1.29
2023-03-02T03:47:51.203Z,-1.32
2023-03-02T03:58:12.784Z,-1.32
2023-03-02T04:08:34.611Z,-1.36
2023-03-02T04:18:57.189Z,-1.40
2023-03-02T04:29:19.534Z,-1.44
2023-03-02T04:39:42.611Z,-1.47
2023-03-02T04:50:03.679Z,-1.50
2023-03-02T05:00:25.340Z,-1.54
2023-03-02T05:10:46.337Z,-1.56
2023-03-02T05:21:07.368Z,-1.59
2023-03-02T05:31:31.593Z,-1.62
2023-03-02T05:41:53.752Z,-1.65
2023-03-02T05:52:15.171Z,-1.68
2023-03-02T06:02:39.272Z,-1.72
2023-03-02T06:13:01.321Z,-1.74
2023-03-02T06:23:22.320Z,-1.76
2023-03-02T06:33:43.756Z,-1.77
2023-03-02T06:44:05.405Z,-1.78
2023-03-02T06:54:26.642Z,-1.78
2023-03-02T07:04:47.649Z,-1.74
2023-03-02T07:15:12.485Z,-1.65
2023-03-02T07:25:33.895Z,-1.54
2023-03-02T07:35:54.851Z,-1.45
2023-03-02T07:46:16.547Z,-1.37
2023-03-02T07:56:38.031Z,-1.26
2023-03-02T08:06:59.146Z,-1.01
2023-03-02T08:17:20.771Z,-0.81
2023-03-02T08:27:42.249Z,-0.67
2023-03-02T08:38:03.327Z,-0.57
2023-03-02T08:48:25.593Z,-0.39
2023-03-02T08:58:48.287Z,-0.19
2023-03-02T09:09:11.340Z,0.01
2023-03-02T09:19:43.928Z,0.13
2023-03-02T09:30:06.271Z,0.30
2023-03-02T09:40:29.122Z,0.54
2023-03-02T09:51:24.213Z,0.66
2023-03-02T10:01:53.264Z,0.82
2023-03-02T10:12:35.728Z,1.00
2023-03-02T10:23:26.688Z,1.19
2023-03-02T10:33:48.267Z,1.38
2023-03-02T10:44:42.888Z,1.58
2023-03-02T10:55:07.140Z,1.78
2023-03-02T11:05:32.815Z,1.96
2023-03-02T11:15:56.969Z,2.12
2023-03-02T11:26:23.800Z,2.29
2023-03-02T11:36:59.497Z,2.47
2023-03-02T11:47:21.497Z,2.63
2023-03-02T11:57:49.786Z,2.78
2023-03-02T12:08:20.096Z,2.92
2023-03-02T12:18:47.893Z,3.06
2023-03-02T12:29:10.511Z,3.16
2023-03-02T12:39:43.331Z,3.27
2023-03-02T12:50:18.202Z,3.38
2023-03-02T13:00:39.209Z,3.48
2023-03-02T13:11:03.733Z,3.56
2023-03-02T13:21:31.235Z,3.62
2023-03-02T13:31:53.068Z,3.69
2023-03-02T13:42:26.247Z,3.72
2023-03-02T13:52:48.924Z,3.78
2023-03-02T14:03:23.175Z,3.81
2023-03-02T14:13:48.088Z,3.84
2023-03-02T14:24:09.351Z,3.84
2023-03-02T14:34:30.489Z,3.82
2023-03-02T14:44:52.288Z,3.82
2023-03-02T14:55:15.881Z,3.79
2023-03-02T15:05:37.036Z,3.75
2023-03-02T15:15:58.164Z,3.73
2023-03-02T15:26:19.704Z,3.67
2023-03-02T15:36:41.209Z,3.63
2023-03-02T15:47:02.612Z,3.57
2023-03-02T15:57:25.132Z,3.54
2023-03-02T16:07:46.028Z,3.48
2023-03-02T16:18:08.944Z,3.43
2023-03-02T16:28:30.581Z,3.37
2023-03-02T16:38:52.278Z,3.29
2023-03-02T16:49:14.035Z,3.21
2023-03-02T16:59:35.172Z,3.12
2023-03-02T17:09:56.487Z,3.04
2023-03-02T17:20:18.204Z,3.02
2023-03-02T17:30:40.310Z,2.99
2023-03-02T17:41:05.616Z,2.94
2023-03-02T17:51:28.687Z,2.90
2023-03-02T18:01:50.355Z,2.86
2023-03-02T18:12:11.391Z,2.79
2023-03-02T18:22:32.791Z,2.73
2023-03-02T18:32:54.538Z,2.68
2023-03-02T18:43:15.575Z,2.62
2023-03-02T18:53:38.371Z,2.58
2023-03-02T19:04:00.852Z,2.54
2023-03-02T19:14:22.416Z,2.48
2023-03-02T19:24:47.761Z,2.44
2023-03-02T19:35:12.463Z,2.39
2023-03-02T19:45:35.880Z,2.37
2023-03-02T19:56:04.757Z,2.32
2023-03-02T20:06:33.524Z,2.29
2023-03-02T20:16:55.271Z,2.23
2023-03-02T20:27:16.606Z,2.20
2023-03-02T20:37:38.642Z,2.15
2023-03-02T20:47:59.604Z,2.09
2023-03-02T20:58:20.867Z,2.02
2023-03-02T21:08:42.639Z,1.99
2023-03-02T21:19:06.165Z,1.89
2023-03-02T21:29:27.801Z,1.81
2023-03-02T21:39:49.730Z,1.72
2023-03-02T21:50:20.772Z,1.65
2023-03-02T22:00:45.754Z,1.58
2023-03-02T22:11:07.186Z,1.50
2023-03-02T22:21:39.161Z,1.42
2023-03-02T22:32:21.297Z,1.36
2023-03-02T22:42:42.906Z,1.30
2023-03-02T22:53:18.488Z,1.22
2023-03-02T23:03:41.700Z,1.16
2023-03-02T23:14:03.586Z,1.13
2023-03-02T23:24:25.369Z,1.06
2023-03-02T23:34:47.825Z,1.02
2023-03-02T23:45:09.776Z,0.95
2023-03-02T23:55:32.446Z,0.90
